sensor_id;sensor_type;location;lat;lon;timestamp;pressure;altitude;pressure_sealevel;temperature;humidity
65872;BME280;52653;50.080;21.992;2024-03-29T00:01:40;97429.45;;;10.42;79.82
65872;BME280;52653;50.080;21.992;2024-03-29T00:04:32;97424.33;;;10.43;80.15
65872;BME280;52653;50.080;21.992;2024-03-29T00:07:24;97426.91;;;10.44;80.20
65872;BME280;52653;50.080;21.992;2024-03-29T00:10:18;97423.73;;;10.45;80.35
65872;BME280;52653;50.080;21.992;2024-03-29T00:12:59;97418.27;;;10.46;80.50
65872;BME280;52653;50.080;21.992;2024-03-29T00:15:53;97419.27;;;10.47;80.73
65872;BME280;52653;50.080;21.992;2024-03-29T00:18:28;97423.79;;;10.48;80.75
65872;BME280;52653;50.080;21.992;2024-03-29T00:21:13;97417.77;;;10.49;81.02
65872;BME280;52653;50.080;21.992;2024-03-29T00:23:50;97419.69;;;10.49;81.33
65872;BME280;52653;50.080;21.992;2024-03-29T00:26:22;97418.30;;;10.49;81.69
65872;BME280;52653;50.080;21.992;2024-03-29T00:29:08;97415.83;;;10.49;82.04
65872;BME280;52653;50.080;21.992;2024-03-29T00:31:42;97414.48;;;10.48;82.16
65872;BME280;52653;50.080;21.992;2024-03-29T00:34:26;97412.92;;;10.48;82.68
65872;BME280;52653;50.080;21.992;2024-03-29T00:37:13;97412.05;;;10.47;82.72
65872;BME280;52653;50.080;21.992;2024-03-29T00:40:13;97414.57;;;10.46;83.17
65872;BME280;52653;50.080;21.992;2024-03-29T00:43:06;97415.86;;;10.44;83.68
65872;BME280;52653;50.080;21.992;2024-03-29T00:45:59;97421.71;;;10.43;84.12
65872;BME280;52653;50.080;21.992;2024-03-29T00:48:32;97425.25;;;10.41;84.49
65872;BME280;52653;50.080;21.992;2024-03-29T00:51:24;97430.13;;;10.37;84.67
65872;BME280;52653;50.080;21.992;2024-03-29T00:54:20;97433.00;;;10.35;85.27
65872;BME280;52653;50.080;21.992;2024-03-29T00:57:14;97441.19;;;10.32;85.80
65872;BME280;52653;50.080;21.992;2024-03-29T00:59:55;97450.56;;;10.29;86.26
65872;BME280;52653;50.080;21.992;2024-03-29T01:02:48;97458.48;;;10.28;86.88
65872;BME280;52653;50.080;21.992;2024-03-29T01:05:20;97466.10;;;10.25;87.50
65872;BME280;52653;50.080;21.992;2024-03-29T01:07:57;97472.52;;;10.23;88.49
65872;BME280;52653;50.080;21.992;2024-03-29T01:10:40;97477.39;;;10.18;89.52
65872;BME280;52653;50.080;21.992;2024-03-29T01:13:32;97484.31;;;10.15;90.41
65872;BME280;52653;50.080;21.992;2024-03-29T01:16:15;97493.89;;;10.12;91.24
65872;BME280;52653;50.080;21.992;2024-03-29T01:18:47;97498.27;;;10.06;92.66
65872;BME280;52653;50.080;21.992;2024-03-29T01:21:22;97501.27;;;10.00;93.55
65872;BME280;52653;50.080;21.992;2024-03-29T01:24:14;97501.11;;;9.99;93.83
65872;BME280;52653;50.080;21.992;2024-03-29T01:26:56;97501.23;;;9.96;94.77
65872;BME280;52653;50.080;21.992;2024-03-29T01:29:28;97506.56;;;9.94;94.72
65872;BME280;52653;50.080;21.992;2024-03-29T01:32:12;97514.14;;;9.92;95.16
65872;BME280;52653;50.080;21.992;2024-03-29T01:34:44;97516.11;;;9.90;96.31
65872;BME280;52653;50.080;21.992;2024-03-29T01:37:36;97525.19;;;9.86;97.81
65872;BME280;52653;50.080;21.992;2024-03-29T01:40:14;97535.39;;;9.80;99.03
65872;BME280;52653;50.080;21.992;2024-03-29T01:43:06;97546.35;;;9.70;98.74
65872;BME280;52653;50.080;21.992;2024-03-29T01:45:53;97552.35;;;9.63;98.90
65872;BME280;52653;50.080;21.992;2024-03-29T01:48:36;97601.73;;;9.44;98.47
65872;BME280;52653;50.080;21.992;2024-03-29T01:51:12;97608.81;;;9.23;97.09
65872;BME280;52653;50.080;21.992;2024-03-29T01:54:05;97621.02;;;9.00;97.20
65872;BME280;52653;50.080;21.992;2024-03-29T01:56:44;97646.59;;;8.78;97.22
65872;BME280;52653;50.080;21.992;2024-03-29T01:59:20;97664.80;;;8.62;97.79
65872;BME280;52653;50.080;21.992;2024-03-29T02:02:12;97687.37;;;8.47;99.15
65872;BME280;52653;50.080;21.992;2024-03-29T02:05:06;97700.58;;;8.26;98.84
65872;BME280;52653;50.080;21.992;2024-03-29T02:07:41;97718.34;;;8.06;98.37
65872;BME280;52653;50.080;21.992;2024-03-29T02:10:24;97737.99;;;7.84;98.83
65872;BME280;52653;50.080;21.992;2024-03-29T02:13:09;97753.20;;;7.65;98.40
65872;BME280;52653;50.080;21.992;2024-03-29T02:15:54;97776.83;;;7.44;98.23
65872;BME280;52653;50.080;21.992;2024-03-29T02:18:47;97788.52;;;7.23;97.75
65872;BME280;52653;50.080;21.992;2024-03-29T02:21:24;97798.06;;;7.06;98.95
65872;BME280;52653;50.080;21.992;2024-03-29T02:24:04;97799.86;;;6.91;99.89
65872;BME280;52653;50.080;21.992;2024-03-29T02:26:41;97812.73;;;6.81;100.00
65872;BME280;52653;50.080;21.992;2024-03-29T02:29:31;97822.44;;;6.73;100.00
65872;BME280;52653;50.080;21.992;2024-03-29T02:32:23;97830.42;;;6.65;100.00
65872;BME280;52653;50.080;21.992;2024-03-29T02:35:07;97837.09;;;6.60;100.00
65872;BME280;52653;50.080;21.992;2024-03-29T02:37:42;97852.65;;;6.56;100.00
65872;BME280;52653;50.080;21.992;2024-03-29T02:40:15;97859.16;;;6.52;100.00
65872;BME280;52653;50.080;21.992;2024-03-29T02:42:47;97870.70;;;6.48;100.00
65872;BME280;52653;50.080;21.992;2024-03-29T02:45:39;97887.42;;;6.47;100.00
65872;BME280;52653;50.080;21.992;2024-03-29T02:48:11;97900.86;;;6.45;100.00
65872;BME280;52653;50.080;21.992;2024-03-29T02:50:46;97909.25;;;6.42;100.00
65872;BME280;52653;50.080;21.992;2024-03-29T02:53:30;97919.17;;;6.43;100.00
65872;BME280;52653;50.080;21.992;2024-03-29T02:56:15;97926.14;;;6.43;100.00
65872;BME280;52653;50.080;21.992;2024-03-29T02:59:02;97939.20;;;6.42;100.00
65872;BME280;52653;50.080;21.992;2024-03-29T03:01:45;97952.48;;;6.40;100.00
65872;BME280;52653;50.080;21.992;2024-03-29T03:04:37;97966.27;;;6.37;100.00
65872;BME280;52653;50.080;21.992;2024-03-29T03:07:20;97982.65;;;6.36;100.00
65872;BME280;52653;50.080;21.992;2024-03-29T03:10:12;97994.15;;;6.36;100.00
65872;BME280;52653;50.080;21.992;2024-03-29T03:13:11;98000.42;;;6.36;100.00
65872;BME280;52653;50.080;21.992;2024-03-29T03:15:46;98012.98;;;6.35;100.00
65872;BME280;52653;50.080;21.992;2024-03-29T03:18:38;98021.67;;;6.35;100.00
65872;BME280;52653;50.080;21.992;2024-03-29T03:21:30;98028.63;;;6.36;100.00
65872;BME280;52653;50.080;21.992;2024-03-29T03:24:08;98031.25;;;6.36;100.00
65872;BME280;52653;50.080;21.992;2024-03-29T03:26:52;98044.83;;;6.36;100.00
65872;BME280;52653;50.080;21.992;2024-03-29T03:29:38;98054.39;;;6.37;100.00
65872;BME280;52653;50.080;21.992;2024-03-29T03:32:18;98067.44;;;6.38;100.00
65872;BME280;52653;50.080;21.992;2024-03-29T03:35:04;98081.73;;;6.38;100.00
65872;BME280;52653;50.080;21.992;2024-03-29T03:37:56;98083.64;;;6.39;100.00
65872;BME280;52653;50.080;21.992;2024-03-29T03:40:42;98083.27;;;6.39;100.00
65872;BME280;52653;50.080;21.992;2024-03-29T03:43:29;98092.33;;;6.40;100.00
65872;BME280;52653;50.080;21.992;2024-03-29T03:46:22;98101.04;;;6.40;100.00
65872;BME280;52653;50.080;21.992;2024-03-29T03:49:02;98109.90;;;6.41;100.00
65872;BME280;52653;50.080;21.992;2024-03-29T03:51:40;98117.73;;;6.41;100.00
65872;BME280;52653;50.080;21.992;2024-03-29T03:54:25;98120.17;;;6.41;100.00
65872;BME280;52653;50.080;21.992;2024-03-29T03:57:00;98128.38;;;6.40;100.00
65872;BME280;52653;50.080;21.992;2024-03-29T03:59:32;98132.55;;;6.40;100.00
65872;BME280;52653;50.080;21.992;2024-03-29T04:02:24;98137.44;;;6.40;100.00
65872;BME280;52653;50.080;21.992;2024-03-29T04:05:10;98148.75;;;6.41;100.00
65872;BME280;52653;50.080;21.992;2024-03-29T04:08:02;98162.52;;;6.40;100.00
65872;BME280;52653;50.080;21.992;2024-03-29T04:10:55;98173.83;;;6.40;100.00
65872;BME280;52653;50.080;21.992;2024-03-29T04:13:37;98179.77;;;6.39;100.00
65872;BME280;52653;50.080;21.992;2024-03-29T04:16:31;98190.05;;;6.38;100.00
65872;BME280;52653;50.080;21.992;2024-03-29T04:19:15;98190.06;;;6.37;100.00
65872;BME280;52653;50.080;21.992;2024-03-29T04:22:07;98189.72;;;6.36;100.00
65872;BME280;52653;50.080;21.992;2024-03-29T04:24:50;98193.55;;;6.33;100.00
65872;BME280;52653;50.080;21.992;2024-03-29T04:27:35;98200.02;;;6.30;100.00
65872;BME280;52653;50.080;21.992;2024-03-29T04:30:27;98211.72;;;6.26;100.00
65872;BME280;52653;50.080;21.992;2024-03-29T04:33:19;98222.02;;;6.23;100.00
65872;BME280;52653;50.080;21.992;2024-03-29T04:36:06;98233.85;;;6.21;100.00
65872;BME280;52653;50.080;21.992;2024-03-29T04:38:52;98228.64;;;6.20;100.00
65872;BME280;52653;50.080;21.992;2024-03-29T04:41:35;98224.99;;;6.17;100.00
65872;BME280;52653;50.080;21.992;2024-03-29T04:44:24;98228.49;;;6.16;100.00
65872;BME280;52653;50.080;21.992;2024-03-29T04:47:17;98229.53;;;6.17;100.00
65872;BME280;52653;50.080;21.992;2024-03-29T04:50:10;98231.45;;;6.17;100.00
65872;BME280;52653;50.080;21.992;2024-03-29T04:52:55;98229.36;;;6.16;100.00
65872;BME280;52653;50.080;21.992;2024-03-29T04:55:48;98236.48;;;6.17;100.00
65872;BME280;52653;50.080;21.992;2024-03-29T04:58:38;98239.29;;;6.15;100.00
65872;BME280;52653;50.080;21.992;2024-03-29T05:01:24;98243.83;;;6.14;100.00
65872;BME280;52653;50.080;21.992;2024-03-29T05:04:09;98245.22;;;6.14;100.00
65872;BME280;52653;50.080;21.992;2024-03-29T05:06:55;98240.86;;;6.15;100.00
65872;BME280;52653;50.080;21.992;2024-03-29T05:09:48;98242.43;;;6.14;100.00
65872;BME280;52653;50.080;21.992;2024-03-29T05:12:49;98245.23;;;6.13;100.00
65872;BME280;52653;50.080;21.992;2024-03-29T05:15:42;98248.89;;;6.12;100.00
65872;BME280;52653;50.080;21.992;2024-03-29T05:18:34;98253.41;;;6.13;100.00
65872;BME280;52653;50.080;21.992;2024-03-29T05:21:18;98261.41;;;6.14;100.00
65872;BME280;52653;50.080;21.992;2024-03-29T05:24:10;98267.48;;;6.18;100.00
65872;BME280;52653;50.080;21.992;2024-03-29T05:26:52;98276.86;;;6.22;100.00
65872;BME280;52653;50.080;21.992;2024-03-29T05:29:44;98282.05;;;6.28;100.00
65872;BME280;52653;50.080;21.992;2024-03-29T05:32:36;98293.33;;;6.36;100.00
65872;BME280;52653;50.080;21.992;2024-03-29T05:35:28;98303.36;;;6.45;100.00
65872;BME280;52653;50.080;21.992;2024-03-29T05:38:20;98302.45;;;6.54;100.00
65872;BME280;52653;50.080;21.992;2024-03-29T05:41:13;98299.62;;;6.62;100.00
65872;BME280;52653;50.080;21.992;2024-03-29T05:44:06;98296.41;;;6.71;100.00
65872;BME280;52653;50.080;21.992;2024-03-29T05:46:40;98302.11;;;6.79;100.00
65872;BME280;52653;50.080;21.992;2024-03-29T05:49:21;98310.92;;;6.89;100.00
65872;BME280;52653;50.080;21.992;2024-03-29T05:51:58;98311.37;;;6.98;100.00
65872;BME280;52653;50.080;21.992;2024-03-29T05:54:44;98321.60;;;7.04;100.00
65872;BME280;52653;50.080;21.992;2024-03-29T05:57:35;98317.86;;;7.15;100.00
65872;BME280;52653;50.080;21.992;2024-03-29T06:00:32;98318.83;;;7.23;99.87
65872;BME280;52653;50.080;21.992;2024-03-29T06:03:18;98331.81;;;7.34;99.72
65872;BME280;52653;50.080;21.992;2024-03-29T06:06:10;98321.42;;;7.45;97.83
65872;BME280;52653;50.080;21.992;2024-03-29T06:08:48;98311.38;;;7.55;97.58
65872;BME280;52653;50.080;21.992;2024-03-29T06:11:30;98313.89;;;7.66;96.41
65872;BME280;52653;50.080;21.992;2024-03-29T06:14:15;98325.30;;;7.76;95.06
65872;BME280;52653;50.080;21.992;2024-03-29T06:17:14;98338.77;;;7.89;94.47
65872;BME280;52653;50.080;21.992;2024-03-29T06:20:06;98346.63;;;8.04;94.12
65872;BME280;52653;50.080;21.992;2024-03-29T06:22:41;98349.25;;;8.18;93.69
65872;BME280;52653;50.080;21.992;2024-03-29T06:25:34;98357.13;;;8.32;91.16
65872;BME280;52653;50.080;21.992;2024-03-29T06:28:26;98358.19;;;8.46;89.92
65872;BME280;52653;50.080;21.992;2024-03-29T06:31:12;98363.25;;;8.61;89.12
65872;BME280;52653;50.080;21.992;2024-03-29T06:34:07;98373.00;;;8.76;88.18
65872;BME280;52653;50.080;21.992;2024-03-29T06:37:00;98376.30;;;8.90;86.57
65872;BME280;52653;50.080;21.992;2024-03-29T06:39:52;98386.05;;;9.05;85.75
65872;BME280;52653;50.080;21.992;2024-03-29T06:42:46;98386.25;;;9.15;83.54
65872;BME280;52653;50.080;21.992;2024-03-29T06:45:40;98378.02;;;9.27;84.07
65872;BME280;52653;50.080;21.992;2024-03-29T06:48:19;98386.94;;;9.38;83.07
65872;BME280;52653;50.080;21.992;2024-03-29T06:51:11;98387.45;;;9.50;81.53
65872;BME280;52653;50.080;21.992;2024-03-29T06:53:57;98393.73;;;9.61;81.41
65872;BME280;52653;50.080;21.992;2024-03-29T06:56:51;98395.27;;;9.73;80.27
65872;BME280;52653;50.080;21.992;2024-03-29T06:59:44;98400.16;;;9.83;79.91
65872;BME280;52653;50.080;21.992;2024-03-29T07:02:36;98406.23;;;9.97;79.50
65872;BME280;52653;50.080;21.992;2024-03-29T07:05:29;98419.91;;;10.07;77.67
65872;BME280;52653;50.080;21.992;2024-03-29T07:08:21;98416.21;;;10.16;76.52
65872;BME280;52653;50.080;21.992;2024-03-29T07:11:13;98420.03;;;10.29;76.03
65872;BME280;52653;50.080;21.992;2024-03-29T07:14:05;98415.25;;;10.41;74.78
65872;BME280;52653;50.080;21.992;2024-03-29T07:16:51;98419.06;;;10.51;73.88
65872;BME280;52653;50.080;21.992;2024-03-29T07:19:37;98417.12;;;10.61;73.09
65872;BME280;52653;50.080;21.992;2024-03-29T07:22:29;98434.36;;;10.67;71.35
65872;BME280;52653;50.080;21.992;2024-03-29T07:25:27;98448.18;;;10.77;72.54
65872;BME280;52653;50.080;21.992;2024-03-29T07:28:19;98440.41;;;10.87;71.58
65872;BME280;52653;50.080;21.992;2024-03-29T07:31:11;98431.10;;;10.97;71.49
65872;BME280;52653;50.080;21.992;2024-03-29T07:33:56;98433.34;;;11.06;70.58
65872;BME280;52653;50.080;21.992;2024-03-29T07:36:42;98430.65;;;11.17;71.29
65872;BME280;52653;50.080;21.992;2024-03-29T07:39:29;98440.17;;;11.30;71.80
65872;BME280;52653;50.080;21.992;2024-03-29T07:42:06;98439.70;;;11.43;72.80
65872;BME280;52653;50.080;21.992;2024-03-29T07:44:50;98438.30;;;11.57;73.26
65872;BME280;52653;50.080;21.992;2024-03-29T07:47:43;98438.14;;;11.71;71.88
65872;BME280;52653;50.080;21.992;2024-03-29T07:50:30;98437.42;;;11.79;70.85
65872;BME280;52653;50.080;21.992;2024-03-29T07:53:22;98436.01;;;11.87;71.68
65872;BME280;52653;50.080;21.992;2024-03-29T07:56:15;98436.02;;;11.94;70.57
65872;BME280;52653;50.080;21.992;2024-03-29T07:59:07;98430.14;;;11.97;70.01
65872;BME280;52653;50.080;21.992;2024-03-29T08:01:50;98431.37;;;12.03;70.15
65872;BME280;52653;50.080;21.992;2024-03-29T08:04:43;98430.07;;;12.13;70.37
65872;BME280;52653;50.080;21.992;2024-03-29T08:07:18;98428.26;;;12.21;69.84
65872;BME280;52653;50.080;21.992;2024-03-29T08:10:12;98423.29;;;12.30;68.89
65872;BME280;52653;50.080;21.992;2024-03-29T08:12:56;98422.66;;;12.40;68.33
65872;BME280;52653;50.080;21.992;2024-03-29T08:15:49;98418.87;;;12.50;68.74
65872;BME280;52653;50.080;21.992;2024-03-29T08:18:41;98416.25;;;12.61;68.69
65872;BME280;52653;50.080;21.992;2024-03-29T08:21:34;98416.87;;;12.70;67.59
65872;BME280;52653;50.080;21.992;2024-03-29T08:24:27;98426.54;;;12.77;67.68
65872;BME280;52653;50.080;21.992;2024-03-29T08:27:20;98427.77;;;12.83;67.95
65872;BME280;52653;50.080;21.992;2024-03-29T08:30:03;98438.07;;;12.91;67.93
65872;BME280;52653;50.080;21.992;2024-03-29T08:32:46;98444.72;;;12.99;67.55
65872;BME280;52653;50.080;21.992;2024-03-29T08:35:29;98449.56;;;13.07;67.08
65872;BME280;52653;50.080;21.992;2024-03-29T08:38:20;98451.42;;;13.16;67.45
65872;BME280;52653;50.080;21.992;2024-03-29T08:41:13;98450.08;;;13.26;66.56
65872;BME280;52653;50.080;21.992;2024-03-29T08:44:04;98454.59;;;13.35;65.94
65872;BME280;52653;50.080;21.992;2024-03-29T08:46:48;98454.02;;;13.41;65.51
65872;BME280;52653;50.080;21.992;2024-03-29T08:49:40;98455.30;;;13.45;64.27
65872;BME280;52653;50.080;21.992;2024-03-29T08:52:22;98453.91;;;13.50;63.86
65872;BME280;52653;50.080;21.992;2024-03-29T08:54:57;98454.83;;;13.54;62.80
65872;BME280;52653;50.080;21.992;2024-03-29T08:57:42;98452.14;;;13.55;61.50
65872;BME280;52653;50.080;21.992;2024-03-29T09:00:17;98458.14;;;13.61;62.17
65872;BME280;52653;50.080;21.992;2024-03-29T09:02:53;98455.98;;;13.68;60.36
65872;BME280;52653;50.080;21.992;2024-03-29T09:05:45;98450.23;;;13.71;59.28
65872;BME280;52653;50.080;21.992;2024-03-29T09:08:26;98461.23;;;13.75;59.36
65872;BME280;52653;50.080;21.992;2024-03-29T09:11:07;98462.93;;;13.82;60.55
65872;BME280;52653;50.080;21.992;2024-03-29T09:13:41;98465.06;;;13.87;60.24
65872;BME280;52653;50.080;21.992;2024-03-29T09:16:16;98463.78;;;13.89;58.76
65872;BME280;52653;50.080;21.992;2024-03-29T09:19:08;98470.48;;;13.98;60.29
65872;BME280;52653;50.080;21.992;2024-03-29T09:22:01;98473.48;;;14.15;60.26
65872;BME280;52653;50.080;21.992;2024-03-29T09:24:44;98477.98;;;14.27;59.35
65872;BME280;52653;50.080;21.992;2024-03-29T09:27:30;98470.90;;;14.38;59.49
65872;BME280;52653;50.080;21.992;2024-03-29T09:30:15;98474.16;;;14.51;57.87
65872;BME280;52653;50.080;21.992;2024-03-29T09:33:08;98471.98;;;14.58;55.95
65872;BME280;52653;50.080;21.992;2024-03-29T09:36:01;98477.71;;;14.61;55.06
65872;BME280;52653;50.080;21.992;2024-03-29T09:38:54;98476.05;;;14.68;56.41
65872;BME280;52653;50.080;21.992;2024-03-29T09:41:39;98474.71;;;14.80;56.16
65872;BME280;52653;50.080;21.992;2024-03-29T09:44:35;98472.43;;;14.90;55.69
65872;BME280;52653;50.080;21.992;2024-03-29T09:47:27;98469.70;;;14.96;54.92
65872;BME280;52653;50.080;21.992;2024-03-29T09:50:10;98469.82;;;14.98;53.62
65872;BME280;52653;50.080;21.992;2024-03-29T09:52:53;98477.71;;;15.00;52.66
65872;BME280;52653;50.080;21.992;2024-03-29T09:55:47;98486.91;;;15.04;53.06
65872;BME280;52653;50.080;21.992;2024-03-29T09:58:43;98489.88;;;15.10;50.81
65872;BME280;52653;50.080;21.992;2024-03-29T10:01:20;98490.15;;;15.11;49.21
65872;BME280;52653;50.080;21.992;2024-03-29T10:04:03;98499.45;;;15.13;49.41
65872;BME280;52653;50.080;21.992;2024-03-29T10:06:56;98495.64;;;15.16;48.34
65872;BME280;52653;50.080;21.992;2024-03-29T10:09:48;98501.47;;;15.20;48.43
65872;BME280;52653;50.080;21.992;2024-03-29T10:12:34;98487.70;;;15.25;47.27
65872;BME280;52653;50.080;21.992;2024-03-29T10:15:21;98491.79;;;15.29;48.57
65872;BME280;52653;50.080;21.992;2024-03-29T10:18:16;98489.65;;;15.39;50.52
65872;BME280;52653;50.080;21.992;2024-03-29T10:21:06;98483.61;;;15.53;50.97
65872;BME280;52653;50.080;21.992;2024-03-29T10:23:44;98479.52;;;15.63;50.32
65872;BME280;52653;50.080;21.992;2024-03-29T10:26:40;98473.10;;;15.73;50.47
65872;BME280;52653;50.080;21.992;2024-03-29T10:29:32;98473.87;;;15.80;50.44
65872;BME280;52653;50.080;21.992;2024-03-29T10:32:23;98472.74;;;15.86;49.96
65872;BME280;52653;50.080;21.992;2024-03-29T10:34:59;98474.98;;;15.88;48.35
65872;BME280;52653;50.080;21.992;2024-03-29T10:37:33;98478.46;;;15.90;47.37
65872;BME280;52653;50.080;21.992;2024-03-29T10:40:11;98475.17;;;15.96;47.11
65872;BME280;52653;50.080;21.992;2024-03-29T10:42:52;98479.20;;;16.05;45.99
65872;BME280;52653;50.080;21.992;2024-03-29T10:45:31;98473.80;;;16.12;43.67
65872;BME280;52653;50.080;21.992;2024-03-29T10:48:14;98475.16;;;16.14;43.71
65872;BME280;52653;50.080;21.992;2024-03-29T10:51:08;98478.83;;;16.19;43.62
65872;BME280;52653;50.080;21.992;2024-03-29T10:54:00;98470.63;;;16.25;44.44
65872;BME280;52653;50.080;21.992;2024-03-29T10:56:38;98466.24;;;16.32;44.64
65872;BME280;52653;50.080;21.992;2024-03-29T10:59:42;98469.73;;;16.41;44.84
65872;BME280;52653;50.080;21.992;2024-03-29T11:02:42;98466.09;;;16.52;45.31
65872;BME280;52653;50.080;21.992;2024-03-29T11:05:36;98462.54;;;16.60;45.74
65872;BME280;52653;50.080;21.992;2024-03-29T11:08:30;98463.78;;;16.64;45.23
65872;BME280;52653;50.080;21.992;2024-03-29T11:11:14;98464.14;;;16.69;45.90
65872;BME280;52653;50.080;21.992;2024-03-29T11:14:10;98459.34;;;16.77;46.06
65872;BME280;52653;50.080;21.992;2024-03-29T11:16:54;98460.23;;;16.85;45.87
65872;BME280;52653;50.080;21.992;2024-03-29T11:19:33;98455.98;;;16.89;45.13
65872;BME280;52653;50.080;21.992;2024-03-29T11:22:26;98462.02;;;16.88;44.78
65872;BME280;52653;50.080;21.992;2024-03-29T11:25:18;98466.02;;;16.90;45.49
65872;BME280;52653;50.080;21.992;2024-03-29T11:28:13;98458.41;;;16.90;44.30
65872;BME280;52653;50.080;21.992;2024-03-29T11:30:51;98461.09;;;16.89;43.99
65872;BME280;52653;50.080;21.992;2024-03-29T11:33:47;98458.72;;;16.87;43.31
65872;BME280;52653;50.080;21.992;2024-03-29T11:36:40;98459.97;;;16.86;43.06
65872;BME280;52653;50.080;21.992;2024-03-29T11:39:34;98454.23;;;16.84;43.40
65872;BME280;52653;50.080;21.992;2024-03-29T11:42:16;98450.55;;;16.87;43.93
65872;BME280;52653;50.080;21.992;2024-03-29T11:45:09;98446.30;;;16.91;44.33
65872;BME280;52653;50.080;21.992;2024-03-29T11:47:59;98439.90;;;16.92;43.32
65872;BME280;52653;50.080;21.992;2024-03-29T11:50:46;98442.16;;;16.93;44.43
65872;BME280;52653;50.080;21.992;2024-03-29T11:53:39;98435.53;;;16.98;43.88
65872;BME280;52653;50.080;21.992;2024-03-29T11:56:14;98436.61;;;17.01;43.37
65872;BME280;52653;50.080;21.992;2024-03-29T11:58:47;98428.52;;;17.04;44.09
65872;BME280;52653;50.080;21.992;2024-03-29T12:01:31;98420.97;;;17.14;44.65
65872;BME280;52653;50.080;21.992;2024-03-29T12:04:23;98417.70;;;17.23;44.14
65872;BME280;52653;50.080;21.992;2024-03-29T12:07:05;98419.44;;;17.27;44.08
65872;BME280;52653;50.080;21.992;2024-03-29T12:09:37;98414.41;;;17.29;45.15
65872;BME280;52653;50.080;21.992;2024-03-29T12:12:23;98414.50;;;17.38;45.79
65872;BME280;52653;50.080;21.992;2024-03-29T12:14:58;98409.07;;;17.48;45.90
65872;BME280;52653;50.080;21.992;2024-03-29T12:17:56;98407.04;;;17.57;44.71
65872;BME280;52653;50.080;21.992;2024-03-29T12:20:50;98403.35;;;17.59;44.01
65872;BME280;52653;50.080;21.992;2024-03-29T12:23:48;98394.01;;;17.62;44.20
65872;BME280;52653;50.080;21.992;2024-03-29T12:26:23;98393.88;;;17.64;43.80
65872;BME280;52653;50.080;21.992;2024-03-29T12:29:21;98389.66;;;17.69;43.29
65872;BME280;52653;50.080;21.992;2024-03-29T12:32:06;98389.56;;;17.70;42.07
65872;BME280;52653;50.080;21.992;2024-03-29T12:34:48;98381.55;;;17.71;42.52
65872;BME280;52653;50.080;21.992;2024-03-29T12:37:49;98379.19;;;17.69;42.53
65872;BME280;52653;50.080;21.992;2024-03-29T12:40:43;98391.23;;;17.73;42.43
65872;BME280;52653;50.080;21.992;2024-03-29T12:43:35;98390.43;;;17.77;41.53
65872;BME280;52653;50.080;21.992;2024-03-29T12:46:10;98386.78;;;17.83;42.02
65872;BME280;52653;50.080;21.992;2024-03-29T12:49:04;98383.75;;;17.94;41.51
65872;BME280;52653;50.080;21.992;2024-03-29T12:51:57;98383.74;;;18.05;40.32
65872;BME280;52653;50.080;21.992;2024-03-29T12:54:33;98388.14;;;18.22;41.32
65872;BME280;52653;50.080;21.992;2024-03-29T12:57:26;98390.31;;;18.42;39.04
65872;BME280;52653;50.080;21.992;2024-03-29T13:00:02;98386.77;;;18.59;39.26
65872;BME280;52653;50.080;21.992;2024-03-29T13:02:53;98381.38;;;18.77;39.94
65872;BME280;52653;50.080;21.992;2024-03-29T13:05:28;98385.91;;;18.85;38.62
65872;BME280;52653;50.080;21.992;2024-03-29T13:08:09;98383.50;;;18.87;37.78
65872;BME280;52653;50.080;21.992;2024-03-29T13:11:02;98385.25;;;18.87;38.48
65872;BME280;52653;50.080;21.992;2024-03-29T13:13:45;98390.52;;;18.89;38.02
65872;BME280;52653;50.080;21.992;2024-03-29T13:16:17;98393.73;;;18.85;37.30
65872;BME280;52653;50.080;21.992;2024-03-29T13:18:52;98378.60;;;18.79;37.72
65872;BME280;52653;50.080;21.992;2024-03-29T13:21:35;98367.73;;;18.66;37.07
65872;BME280;52653;50.080;21.992;2024-03-29T13:24:16;98365.92;;;18.57;37.93
65872;BME280;52653;50.080;21.992;2024-03-29T13:27:00;98359.54;;;18.57;38.17
65872;BME280;52653;50.080;21.992;2024-03-29T13:29:41;98358.45;;;18.57;37.79
65872;BME280;52653;50.080;21.992;2024-03-29T13:32:34;98354.46;;;18.58;38.11
65872;BME280;52653;50.080;21.992;2024-03-29T13:35:10;98357.95;;;18.59;37.90
65872;BME280;52653;50.080;21.992;2024-03-29T13:37:45;98357.70;;;18.58;36.76
65872;BME280;52653;50.080;21.992;2024-03-29T13:40:21;98360.42;;;18.53;36.19
65872;BME280;52653;50.080;21.992;2024-03-29T13:42:53;98365.83;;;18.51;36.89
65872;BME280;52653;50.080;21.992;2024-03-29T13:45:35;98361.19;;;18.55;37.31
65872;BME280;52653;50.080;21.992;2024-03-29T13:48:10;98354.86;;;18.57;37.01
65872;BME280;52653;50.080;21.992;2024-03-29T13:50:45;98356.92;;;18.59;36.57
65872;BME280;52653;50.080;21.992;2024-03-29T13:53:31;98363.96;;;18.60;36.39
65872;BME280;52653;50.080;21.992;2024-03-29T13:56:19;98360.95;;;18.60;36.47
65872;BME280;52653;50.080;21.992;2024-03-29T13:58:51;98357.98;;;18.59;36.73
65872;BME280;52653;50.080;21.992;2024-03-29T14:01:26;98344.65;;;18.59;36.84
65872;BME280;52653;50.080;21.992;2024-03-29T14:04:01;98341.61;;;18.63;37.24
65872;BME280;52653;50.080;21.992;2024-03-29T14:06:39;98340.60;;;18.69;37.90
65872;BME280;52653;50.080;21.992;2024-03-29T14:09:11;98335.30;;;18.74;37.44
65872;BME280;52653;50.080;21.992;2024-03-29T14:12:05;98330.97;;;18.76;36.96
65872;BME280;52653;50.080;21.992;2024-03-29T14:14:37;98329.71;;;18.73;36.98
65872;BME280;52653;50.080;21.992;2024-03-29T14:17:22;98330.52;;;18.71;36.71
65872;BME280;52653;50.080;21.992;2024-03-29T14:19:58;98330.08;;;18.73;37.24
65872;BME280;52653;50.080;21.992;2024-03-29T14:22:42;98334.04;;;18.78;37.50
65872;BME280;52653;50.080;21.992;2024-03-29T14:25:14;98337.59;;;18.81;37.76
65872;BME280;52653;50.080;21.992;2024-03-29T14:27:49;98342.00;;;18.78;37.58
65872;BME280;52653;50.080;21.992;2024-03-29T14:30:48;98339.98;;;18.73;37.92